Time;durP1;ratioP1;P1;durP2;ratioP2;P2;SDS_P1;SDS_P2;PMS_P1;PMS_P2;Temp;Humidity;BMP_temperature;BMP_pressure;BME280_temperature;BME280_humidity;BME280_pressure;Samples;Min_cycle;Max_cycle;Signal;HPM_P1;HPM_P2
2021/01/28 00:00:59;;;;;;;9.02;6.57;;;;;;;;;;6397782;22;20182;-50
2021/01/28 00:03:26;;;;;;;10.82;6.45;;;;;;;;;;6397368;22;20189;-48
2021/01/28 00:05:52;;;;;;;12.25;8.40;;;;;;;;;;6396901;22;20204;-53
2021/01/28 00:08:19;;;;;;;10.77;7.63;;;;;;;;;;6397290;22;20190;-51
2021/01/28 00:11:03;;;;;;;9.95;6.47;;;;;;;;;;6397116;22;20180;-56
2021/01/28 00:13:29;;;;;;;9.32;6.28;;;;;;;;;;6396742;22;20197;-52
2021/01/28 00:15:57;;;;;;;11.82;7.40;;;;;;;;;;6396672;22;20170;-50
2021/01/28 00:18:32;;;;;;;10.23;6.80;;;;;;;;;;6396745;22;20179;-52
2021/01/28 00:21:00;;;;;;;10.93;7.60;;;;;;;;;;6395795;22;20178;-48
2021/01/28 00:23:26;;;;;;;11.07;6.32;;;;;;;;;;6396460;22;20170;-46
2021/01/28 00:25:54;;;;;;;10.48;6.38;;;;;;;;;;6396119;22;20184;-48
2021/01/28 00:28:22;;;;;;;12.27;7.32;;;;;;;;;;6395856;22;20226;-55
2021/01/28 00:30:51;;;;;;;10.43;7.47;;;;;;;;;;6397313;22;20166;-57
2021/01/28 00:36:21;;;;;;;13.27;7.40;;;;;;;;;;6396150;22;20201;-53
2021/01/28 00:38:48;;;;;;;10.55;7.65;;;;;;;;;;6396059;22;20179;-49
2021/01/28 00:41:14;;;;;;;11.43;5.97;;;;;;;;;;6396178;22;20171;-52
2021/01/28 00:43:42;;;;;;;12.55;7.40;;;;;;;;;;6396569;22;20151;-57
2021/01/28 00:46:17;;;;;;;11.93;6.95;;;;;;;;;;6396837;22;20173;-55
2021/01/28 00:48:45;;;;;;;13.15;7.10;;;;;;;;;;6396671;22;20256;-55
2021/01/28 00:51:14;;;;;;;10.07;7.07;;;;;;;;;;6396663;22;20206;-60
2021/01/28 00:54:00;;;;;;;11.65;7.28;;;;;;;;;;6396581;22;20188;-56
2021/01/28 00:56:28;;;;;;;13.10;6.82;;;;;;;;;;6395834;22;20190;-56
2021/01/28 00:59:00;;;;;;;9.77;6.55;;;;;;;;;;6396724;22;20439;-53
2021/01/28 01:01:27;;;;;;;9.52;6.55;;;;;;;;;;6397278;22;20176;-54
2021/01/28 01:03:55;;;;;;;11.10;7.10;;;;;;;;;;6397175;22;20215;-53
2021/01/28 01:06:29;;;;;;;10.35;6.82;;;;;;;;;;6396489;22;20150;-55
2021/01/28 01:08:56;;;;;;;13.95;6.78;;;;;;;;;;6396570;22;20178;-55
2021/01/28 01:11:23;;;;;;;15.20;6.65;;;;;;;;;;6395419;22;20196;-51
2021/01/28 01:13:54;;;;;;;14.18;7.15;;;;;;;;;;6396147;22;20242;-53
2021/01/28 01:16:22;;;;;;;14.27;6.93;;;;;;;;;;6395153;22;20205;-53
2021/01/28 01:18:49;;;;;;;10.07;5.85;;;;;;;;;;6396381;22;20177;-54
2021/01/28 01:21:17;;;;;;;12.45;6.60;;;;;;;;;;6395587;22;20169;-54
2021/01/28 01:23:45;;;;;;;10.48;6.18;;;;;;;;;;6395369;22;20186;-58
2021/01/28 01:26:12;;;;;;;14.93;7.18;;;;;;;;;;6395685;22;20172;-53
2021/01/28 01:28:45;;;;;;;10.82;7.30;;;;;;;;;;6395874;22;20190;-53
2021/01/28 01:31:13;;;;;;;11.85;6.47;;;;;;;;;;6395159;22;20182;-47
2021/01/28 01:33:40;;;;;;;12.73;6.95;;;;;;;;;;6396392;22;20252;-56
2021/01/28 01:36:14;;;;;;;15.70;7.45;;;;;;;;;;6395582;22;20160;-56
2021/01/28 01:38:41;;;;;;;9.40;5.93;;;;;;;;;;6395773;22;20175;-50
2021/01/28 01:41:07;;;;;;;10.07;6.65;;;;;;;;;;6395752;22;20174;-54
2021/01/28 01:43:58;;;;;;;12.38;6.93;;;;;;;;;;6396379;22;20184;-60
2021/01/28 01:46:25;;;;;;;10.80;5.93;;;;;;;;;;6395850;22;20193;-54
2021/01/28 01:48:59;;;;;;;10.65;6.65;;;;;;;;;;6396005;22;20190;-61
2021/01/28 01:51:44;;;;;;;11.40;6.28;;;;;;;;;;6397435;22;20241;-47
2021/01/28 01:54:13;;;;;;;12.35;6.35;;;;;;;;;;6397520;22;20178;-54
2021/01/28 01:56:43;;;;;;;13.00;7.32;;;;;;;;;;6397097;22;20188;-51
2021/01/28 01:59:14;;;;;;;11.00;6.05;;;;;;;;;;6396686;22;20186;-56
2021/01/28 02:01:45;;;;;;;7.63;5.70;;;;;;;;;;6396599;22;20172;-52
2021/01/28 02:04:16;;;;;;;13.90;6.40;;;;;;;;;;6396519;22;20203;-52
2021/01/28 02:06:54;;;;;;;13.70;7.15;;;;;;;;;;6397007;22;20281;-51
2021/01/28 02:09:21;;;;;;;10.98;6.50;;;;;;;;;;6396243;22;20203;-48
2021/01/28 02:11:49;;;;;;;9.93;6.00;;;;;;;;;;6396751;22;20177;-54
2021/01/28 02:14:22;;;;;;;10.50;7.13;;;;;;;;;;6397481;22;20231;-45
2021/01/28 02:16:50;;;;;;;10.52;6.72;;;;;;;;;;6397061;22;20165;-57
2021/01/28 02:19:23;;;;;;;11.30;6.45;;;;;;;;;;6396046;22;20175;-57
2021/01/28 02:22:02;;;;;;;11.48;7.25;;;;;;;;;;6395908;22;20178;-50
2021/01/28 02:24:42;;;;;;;9.05;5.70;;;;;;;;;;6395753;22;20192;-56
2021/01/28 02:27:10;;;;;;;9.30;6.55;;;;;;;;;;6396260;22;20203;-55
2021/01/28 02:29:49;;;;;;;10.93;6.00;;;;;;;;;;6396047;22;20204;-49
2021/01/28 02:32:16;;;;;;;9.85;6.22;;;;;;;;;;6395247;22;20204;-51
2021/01/28 02:34:43;;;;;;;10.27;6.35;;;;;;;;;;6395975;22;20167;-54
2021/01/28 02:37:14;;;;;;;9.90;6.03;;;;;;;;;;6395211;22;20189;-52
2021/01/28 02:39:41;;;;;;;8.95;5.70;;;;;;;;;;6395563;22;20220;-54
2021/01/28 02:42:12;;;;;;;14.20;6.38;;;;;;;;;;6396121;22;20212;-45
2021/01/28 02:44:39;;;;;;;19.73;6.75;;;;;;;;;;6395216;22;20181;-50
2021/01/28 02:47:06;;;;;;;11.10;5.53;;;;;;;;;;6395915;22;20210;-55
2021/01/28 02:49:33;;;;;;;12.98;5.80;;;;;;;;;;6395691;22;20161;-56
2021/01/28 02:52:28;;;;;;;12.63;5.80;;;;;;;;;;6396175;22;20165;-47
2021/01/28 02:54:55;;;;;;;11.55;6.95;;;;;;;;;;6395473;22;20180;-51
2021/01/28 02:57:22;;;;;;;11.63;5.25;;;;;;;;;;6395821;22;20222;-47
2021/01/28 02:59:49;;;;;;;8.05;5.15;;;;;;;;;;6395784;22;20205;-47
2021/01/28 03:02:17;;;;;;;12.40;6.40;;;;;;;;;;6395592;22;20195;-56
2021/01/28 03:04:44;;;;;;;11.23;5.60;;;;;;;;;;6395772;22;20172;-53
2021/01/28 03:07:13;;;;;;;12.05;5.85;;;;;;;;;;6395267;22;20189;-50
2021/01/28 03:09:39;;;;;;;10.27;6.00;;;;;;;;;;6395704;22;20226;-49
2021/01/28 03:12:07;;;;;;;9.95;6.20;;;;;;;;;;6395043;22;20350;-54
2021/01/28 03:14:35;;;;;;;9.50;6.13;;;;;;;;;;6394756;22;20234;-52
2021/01/28 03:17:02;;;;;;;10.35;6.18;;;;;;;;;;6395480;22;20170;-57
2021/01/28 03:19:40;;;;;;;11.15;5.35;;;;;;;;;;6396263;22;20188;-53
2021/01/28 03:22:07;;;;;;;12.95;6.82;;;;;;;;;;6397150;22;20170;-49
2021/01/28 03:24:34;;;;;;;9.63;6.22;;;;;;;;;;6397366;22;20209;-48
2021/01/28 03:27:01;;;;;;;10.30;6.88;;;;;;;;;;6397332;22;20201;-54
2021/01/28 03:29:28;;;;;;;8.40;6.10;;;;;;;;;;6396919;22;20209;-50
2021/01/28 03:32:08;;;;;;;15.25;7.68;;;;;;;;;;6398276;22;20191;-49
2021/01/28 03:34:35;;;;;;;11.65;7.03;;;;;;;;;;6398174;22;20177;-57
2021/01/28 03:37:02;;;;;;;8.73;5.85;;;;;;;;;;6398158;22;20178;-53
2021/01/28 03:39:30;;;;;;;8.68;5.72;;;;;;;;;;6397637;22;20189;-55
2021/01/28 03:41:57;;;;;;;9.55;5.68;;;;;;;;;;6398007;22;20166;-49
2021/01/28 03:44:24;;;;;;;9.90;6.78;;;;;;;;;;6397385;22;20182;-53
2021/01/28 03:47:11;;;;;;;9.15;5.75;;;;;;;;;;6397954;22;20166;-50
2021/01/28 03:49:38;;;;;;;9.02;5.13;;;;;;;;;;6397486;22;20203;-48
2021/01/28 03:52:05;;;;;;;10.07;6.50;;;;;;;;;;6397467;22;20182;-53
2021/01/28 03:54:32;;;;;;;6.40;4.82;;;;;;;;;;6397188;22;20299;-51
2021/01/28 03:56:59;;;;;;;11.73;5.53;;;;;;;;;;6397235;22;20251;-53
2021/01/28 03:59:26;;;;;;;8.40;5.50;;;;;;;;;;6397526;22;20177;-52
2021/01/28 04:01:53;;;;;;;8.50;6.15;;;;;;;;;;6397732;22;20166;-50
2021/01/28 04:04:19;;;;;;;7.78;5.70;;;;;;;;;;6398396;22;20150;-49
2021/01/28 04:06:47;;;;;;;9.40;5.00;;;;;;;;;;6398213;22;20166;-48
2021/01/28 04:09:14;;;;;;;9.32;6.38;;;;;;;;;;6393404;22;20272;-58
2021/01/28 04:11:42;;;;;;;9.48;6.85;;;;;;;;;;6398063;22;20178;-54
2021/01/28 04:14:08;;;;;;;7.55;5.90;;;;;;;;;;6396831;22;20244;-52
2021/01/28 04:16:35;;;;;;;8.75;6.25;;;;;;;;;;6397822;22;20178;-54
2021/01/28 04:19:27;;;;;;;11.02;6.82;;;;;;;;;;6397213;22;20176;-49
2021/01/28 04:21:55;;;;;;;9.00;6.88;;;;;;;;;;6396431;22;20182;-54
2021/01/28 04:24:21;;;;;;;8.38;6.75;;;;;;;;;;6397240;22;20163;-53
2021/01/28 04:26:48;;;;;;;10.40;6.30;;;;;;;;;;6396684;22;20206;-52
2021/01/28 04:29:15;;;;;;;10.98;7.10;;;;;;;;;;6396330;22;20169;-50
2021/01/28 04:32:01;;;;;;;9.35;6.95;;;;;;;;;;6396565;22;20161;-52
2021/01/28 04:34:28;;;;;;;12.90;6.00;;;;;;;;;;6396635;22;20192;-56
2021/01/28 04:36:55;;;;;;;10.38;7.68;;;;;;;;;;6396594;22;20169;-55
2021/01/28 04:39:28;;;;;;;12.52;6.20;;;;;;;;;;6396045;22;20182;-56
2021/01/28 04:41:57;;;;;;;19.05;6.43;;;;;;;;;;6395548;22;20412;-59
2021/01/28 04:44:24;;;;;;;11.73;7.03;;;;;;;;;;6395851;22;20269;-52
2021/01/28 04:46:57;;;;;;;8.48;6.13;;;;;;;;;;6396793;22;20158;-53
2021/01/28 04:49:32;;;;;;;10.15;7.38;;;;;;;;;;6397171;22;20197;-57
2021/01/28 04:52:02;;;;;;;9.23;5.88;;;;;;;;;;6393200;22;20176;-53
2021/01/28 04:54:35;;;;;;;11.43;6.18;;;;;;;;;;6396068;22;20180;-58
2021/01/28 04:57:16;;;;;;;14.48;7.25;;;;;;;;;;6395334;22;20181;-55
2021/01/28 04:59:44;;;;;;;9.80;7.25;;;;;;;;;;6396234;22;20166;-58
2021/01/28 05:02:16;;;;;;;10.65;6.60;;;;;;;;;;6396426;22;20302;-52
2021/01/28 05:04:45;;;;;;;8.75;5.47;;;;;;;;;;6395796;22;20218;-53
2021/01/28 05:07:15;;;;;;;10.77;7.88;;;;;;;;;;6396226;22;20205;-59
2021/01/28 05:09:42;;;;;;;7.30;5.35;;;;;;;;;;6396654;22;20174;-49
2021/01/28 05:12:09;;;;;;;11.77;6.82;;;;;;;;;;6396137;22;20237;-57
2021/01/28 05:14:51;;;;;;;10.90;6.88;;;;;;;;;;6396882;22;20175;-55
2021/01/28 05:17:21;;;;;;;8.65;6.00;;;;;;;;;;6395646;22;20166;-59
2021/01/28 05:19:49;;;;;;;8.90;5.45;;;;;;;;;;6395846;22;20206;-53
2021/01/28 05:22:29;;;;;;;10.90;6.10;;;;;;;;;;6395873;22;20165;-53
2021/01/28 05:24:58;;;;;;;8.20;5.57;;;;;;;;;;6396140;22;20166;-52
2021/01/28 05:27:29;;;;;;;11.82;6.90;;;;;;;;;;6395257;22;20171;-56
2021/01/28 05:29:57;;;;;;;8.93;6.07;;;;;;;;;;6395523;22;20166;-57
2021/01/28 05:32:37;;;;;;;9.10;6.63;;;;;;;;;;6396243;22;20159;-54
2021/01/28 05:35:28;;;;;;;8.52;6.20;;;;;;;;;;6395874;22;20165;-51
2021/01/28 05:38:07;;;;;;;8.40;6.10;;;;;;;;;;6395638;22;20169;-52
2021/01/28 05:40:34;;;;;;;11.05;6.03;;;;;;;;;;6394821;22;20182;-53
2021/01/28 05:43:01;;;;;;;11.25;6.50;;;;;;;;;;6395516;22;20177;-52
2021/01/28 05:45:31;;;;;;;10.35;6.32;;;;;;;;;;6395680;22;20182;-51
2021/01/28 05:48:15;;;;;;;13.77;7.00;;;;;;;;;;6395511;22;20287;-55
2021/01/28 05:50:42;;;;;;;11.23;6.85;;;;;;;;;;6391605;22;20189;-50
2021/01/28 05:53:11;;;;;;;8.75;5.35;;;;;;;;;;6395546;22;20178;-57
2021/01/28 05:55:57;;;;;;;8.63;6.07;;;;;;;;;;6396505;22;20166;-55
2021/01/28 05:58:30;;;;;;;9.50;5.05;;;;;;;;;;6395700;22;20170;-48
2021/01/28 06:01:02;;;;;;;8.68;5.40;;;;;;;;;;6396390;22;20188;-51
2021/01/28 06:03:53;;;;;;;13.15;7.70;;;;;;;;;;6395077;22;20182;-51
2021/01/28 06:06:28;;;;;;;11.85;6.13;;;;;;;;;;6394969;22;20256;-53
2021/01/28 06:09:20;;;;;;;12.05;6.35;;;;;;;;;;6394224;22;20200;-50
2021/01/28 06:11:54;;;;;;;8.30;6.20;;;;;;;;;;6394352;22;20166;-52
2021/01/28 06:14:33;;;;;;;11.50;6.70;;;;;;;;;;6395166;22;20218;-53
2021/01/28 06:17:24;;;;;;;9.80;5.90;;;;;;;;;;6395388;22;20179;-51
2021/01/28 06:20:03;;;;;;;9.07;6.53;;;;;;;;;;6395349;22;20173;-52
2021/01/28 06:25:52;;;;;;;10.88;6.97;;;;;;;;;;6392216;22;20223;-47
2021/01/28 06:28:30;;;;;;;9.85;6.28;;;;;;;;;;6370597;22;20189;-52
2021/01/28 06:31:08;;;;;;;10.45;7.32;;;;;;;;;;6392419;22;20193;-53
2021/01/28 06:33:44;;;;;;;12.93;6.75;;;;;;;;;;6395433;22;20192;-61
2021/01/28 06:36:29;;;;;;;12.35;6.93;;;;;;;;;;6394233;22;20188;-56
2021/01/28 06:39:15;;;;;;;13.25;8.13;;;;;;;;;;6394712;22;20162;-48
2021/01/28 06:41:48;;;;;;;12.38;7.57;;;;;;;;;;6395055;22;20163;-55
2021/01/28 06:44:18;;;;;;;9.52;6.55;;;;;;;;;;6395463;22;20369;-56
2021/01/28 06:46:51;;;;;;;11.30;7.25;;;;;;;;;;6394413;22;20257;-48
2021/01/28 06:49:30;;;;;;;10.70;6.43;;;;;;;;;;6394141;22;20221;-52
2021/01/28 06:52:07;;;;;;;13.55;8.88;;;;;;;;;;6394649;22;20188;-58
2021/01/28 06:54:40;;;;;;;11.07;7.72;;;;;;;;;;6394953;22;20243;-56
2021/01/28 06:57:10;;;;;;;10.25;7.28;;;;;;;;;;6396593;22;20149;-53
2021/01/28 06:59:44;;;;;;;10.07;5.88;;;;;;;;;;6395275;22;20184;-51
2021/01/28 07:02:14;;;;;;;8.40;5.82;;;;;;;;;;6394890;22;20169;-51
2021/01/28 07:04:49;;;;;;;11.20;7.20;;;;;;;;;;6395499;22;20197;-55
2021/01/28 07:07:19;;;;;;;9.70;6.97;;;;;;;;;;6396732;22;20181;-58
2021/01/28 07:09:50;;;;;;;15.18;8.10;;;;;;;;;;6396188;22;20180;-53
2021/01/28 07:12:38;;;;;;;9.57;6.95;;;;;;;;;;6395963;22;20182;-53
2021/01/28 07:15:06;;;;;;;9.35;6.00;;;;;;;;;;6395871;22;20175;-56
2021/01/28 07:17:36;;;;;;;8.73;5.68;;;;;;;;;;6396345;22;20174;-54
2021/01/28 07:20:26;;;;;;;17.73;7.07;;;;;;;;;;6396794;22;20253;-50
2021/01/28 07:23:14;;;;;;;11.07;6.75;;;;;;;;;;6396535;22;20182;-58
2021/01/28 07:26:03;;;;;;;8.95;6.28;;;;;;;;;;6396665;22;20178;-53
2021/01/28 07:28:30;;;;;;;9.23;6.68;;;;;;;;;;6395494;22;20200;-52
2021/01/28 07:31:15;;;;;;;9.65;6.82;;;;;;;;;;6395885;22;20193;-59
2021/01/28 07:33:52;;;;;;;10.02;6.07;;;;;;;;;;6396135;22;20181;-49
2021/01/28 07:36:36;;;;;;;11.05;6.18;;;;;;;;;;6395953;22;20173;-59
2021/01/28 07:39:05;;;;;;;12.00;5.68;;;;;;;;;;6395958;22;20167;-57
2021/01/28 07:44:47;;;;;;;8.25;4.60;;;;;;;;;;6395399;22;20456;-53
2021/01/28 07:47:16;;;;;;;7.80;4.53;;;;;;;;;;6395896;22;20205;-57
2021/01/28 07:50:06;;;;;;;6.40;4.60;;;;;;;;;;6395512;22;20170;-57
2021/01/28 07:53:00;;;;;;;18.08;5.95;;;;;;;;;;6396603;22;20201;-53
2021/01/28 07:56:04;;;;;;;11.48;5.50;;;;;;;;;;6395837;22;20182;-57
2021/01/28 07:58:38;;;;;;;6.30;4.72;;;;;;;;;;6396724;22;20201;-50
2021/01/28 08:01:07;;;;;;;7.75;4.65;;;;;;;;;;6396355;22;20161;-51
2021/01/28 08:03:57;;;;;;;9.88;4.80;;;;;;;;;;6396506;22;20233;-51
2021/01/28 08:06:24;;;;;;;6.10;3.83;;;;;;;;;;6396510;22;20182;-51
2021/01/28 08:09:05;;;;;;;6.00;4.18;;;;;;;;;;6396080;22;20220;-56
2021/01/28 08:14:35;;;;;;;5.55;3.20;;;;;;;;;;6395939;22;20182;-60
2021/01/28 08:17:02;;;;;;;5.88;3.10;;;;;;;;;;6396541;22;20199;-55
2021/01/28 08:19:53;;;;;;;8.10;3.45;;;;;;;;;;6396887;22;20177;-59
2021/01/28 08:22:50;;;;;;;4.70;3.20;;;;;;;;;;6395822;22;20204;-56
2021/01/28 08:25:22;;;;;;;4.22;2.85;;;;;;;;;;6395618;22;20166;-58
2021/01/28 08:27:51;;;;;;;5.28;3.88;;;;;;;;;;6394907;22;20174;-52
2021/01/28 08:30:41;;;;;;;3.65;2.83;;;;;;;;;;6395830;22;20174;-59
2021/01/28 08:33:36;;;;;;;4.90;3.42;;;;;;;;;;6388747;22;20182;-51
2021/01/28 08:36:30;;;;;;;4.15;3.05;;;;;;;;;;6396310;22;20178;-57
2021/01/28 08:39:07;;;;;;;2.95;2.60;;;;;;;;;;6395118;22;20182;-51
2021/01/28 08:41:35;;;;;;;5.43;2.70;;;;;;;;;;6395520;22;20193;-60
2021/01/28 08:44:19;;;;;;;3.70;2.50;;;;;;;;;;6395411;22;20622;-60
2021/01/28 08:46:49;;;;;;;5.70;3.30;;;;;;;;;;6396227;22;20233;-61
2021/01/28 08:49:18;;;;;;;3.85;2.55;;;;;;;;;;6394084;22;20206;-60
2021/01/28 08:51:53;;;;;;;4.38;2.80;;;;;;;;;;6395502;22;20182;-56
2021/01/28 08:54:21;;;;;;;8.13;3.53;;;;;;;;;;6395963;22;20162;-49
2021/01/28 08:57:00;;;;;;;5.28;3.15;;;;;;;;;;6395481;22;20177;-54
2021/01/28 08:59:32;;;;;;;4.47;2.88;;;;;;;;;;6381823;22;20209;-59
2021/01/28 09:02:02;;;;;;;4.50;2.70;;;;;;;;;;6395285;22;20166;-54
2021/01/28 09:04:31;;;;;;;4.43;3.03;;;;;;;;;;6394860;22;20270;-54
2021/01/28 09:07:07;;;;;;;6.22;3.50;;;;;;;;;;6395656;22;20170;-50
2021/01/28 09:09:35;;;;;;;4.32;3.03;;;;;;;;;;6395999;22;20225;-49
2021/01/28 09:12:27;;;;;;;3.83;2.40;;;;;;;;;;6396152;22;20175;-54
2021/01/28 09:15:09;;;;;;;8.23;2.42;;;;;;;;;;6395224;22;20170;-60
2021/01/28 09:17:48;;;;;;;5.75;2.92;;;;;;;;;;6395873;22;20266;-54
2021/01/28 09:20:23;;;;;;;4.25;2.70;;;;;;;;;;6395267;22;20211;-53
2021/01/28 09:22:50;;;;;;;4.38;2.28;;;;;;;;;;6396081;22;20189;-61
2021/01/28 09:25:21;;;;;;;2.63;1.90;;;;;;;;;;6396009;22;20174;-58
2021/01/28 09:28:00;;;;;;;3.97;1.95;;;;;;;;;;6394573;22;20224;-60
2021/01/28 09:30:59;;;;;;;2.55;1.80;;;;;;;;;;6394803;22;20164;-57
2021/01/28 09:33:31;;;;;;;6.00;2.85;;;;;;;;;;6394083;22;20178;-55
2021/01/28 09:36:02;;;;;;;3.80;1.77;;;;;;;;;;6395107;22;20189;-58
2021/01/28 09:38:34;;;;;;;10.68;5.40;;;;;;;;;;6394540;22;20175;-60
2021/01/28 09:41:12;;;;;;;13.20;11.48;;;;;;;;;;6394677;22;20165;-53
2021/01/28 09:43:39;;;;;;;7.72;5.55;;;;;;;;;;6394767;22;20169;-57
2021/01/28 09:46:21;;;;;;;3.00;2.38;;;;;;;;;;6393994;22;20757;-59
2021/01/28 09:48:48;;;;;;;5.63;1.90;;;;;;;;;;6394672;22;20167;-57
2021/01/28 09:51:20;;;;;;;4.15;2.03;;;;;;;;;;6394332;22;20154;-58
2021/01/28 09:53:58;;;;;;;3.53;1.88;;;;;;;;;;6394936;22;20197;-55
2021/01/28 09:56:25;;;;;;;4.72;1.95;;;;;;;;;;6394797;22;20182;-51
2021/01/28 09:58:53;;;;;;;2.60;2.15;;;;;;;;;;6394619;22;20185;-54
2021/01/28 10:01:21;;;;;;;2.90;1.85;;;;;;;;;;6394615;22;20195;-57
2021/01/28 10:04:03;;;;;;;2.88;1.73;;;;;;;;;;6394972;22;20202;-55
2021/01/28 10:06:30;;;;;;;4.45;2.00;;;;;;;;;;6394475;22;20224;-57
2021/01/28 10:08:56;;;;;;;3.20;1.30;;;;;;;;;;6393820;22;20226;-54
2021/01/28 10:11:42;;;;;;;6.20;1.60;;;;;;;;;;6394397;22;20171;-54
2021/01/28 10:14:10;;;;;;;3.17;1.95;;;;;;;;;;6395062;22;20181;-55
2021/01/28 10:16:39;;;;;;;3.25;1.73;;;;;;;;;;6395078;22;20190;-53
2021/01/28 10:19:39;;;;;;;9.52;4.30;;;;;;;;;;6394362;22;20222;-55
2021/01/28 10:22:06;;;;;;;6.88;3.63;;;;;;;;;;6394466;22;20167;-57
2021/01/28 10:24:33;;;;;;;9.00;5.07;;;;;;;;;;6394344;22;20220;-50
2021/01/28 10:27:27;;;;;;;5.28;2.60;;;;;;;;;;6393022;22;20168;-55
2021/01/28 10:29:55;;;;;;;4.13;2.72;;;;;;;;;;6393806;22;20178;-57
2021/01/28 10:32:22;;;;;;;3.95;2.08;;;;;;;;;;6397272;22;20177;-56
2021/01/28 10:37:52;;;;;;;5.63;2.47;;;;;;;;;;6397484;22;20186;-48
2021/01/28 10:40:21;;;;;;;2.80;1.90;;;;;;;;;;6397531;22;20172;-59
2021/01/28 10:42:48;;;;;;;3.80;2.28;;;;;;;;;;6397176;22;20170;-54
2021/01/28 10:45:17;;;;;;;5.13;2.38;;;;;;;;;;6396506;22;20179;-59
2021/01/28 10:47:44;;;;;;;7.22;2.78;;;;;;;;;;6396581;22;20216;-54
2021/01/28 10:50:16;;;;;;;3.47;2.00;;;;;;;;;;6396805;22;20170;-53
2021/01/28 10:52:43;;;;;;;4.70;2.28;;;;;;;;;;6395672;22;20182;-52
2021/01/28 10:55:10;;;;;;;3.80;2.03;;;;;;;;;;6395643;22;20169;-55
2021/01/28 10:58:00;;;;;;;8.98;2.30;;;;;;;;;;6395923;22;20171;-50
2021/01/28 11:00:30;;;;;;;4.35;1.80;;;;;;;;;;6395707;22;20170;-50
2021/01/28 11:02:58;;;;;;;3.08;1.50;;;;;;;;;;6396041;22;20234;-58
2021/01/28 11:05:41;;;;;;;2.55;1.42;;;;;;;;;;6396037;22;20180;-51
2021/01/28 11:08:08;;;;;;;3.60;1.40;;;;;;;;;;6394831;22;20257;-58
2021/01/28 11:10:55;;;;;;;2.45;1.38;;;;;;;;;;6396332;22;20166;-58
2021/01/28 11:16:28;;;;;;;4.72;1.80;;;;;;;;;;6395184;22;20177;-48
2021/01/28 11:18:57;;;;;;;6.57;2.15;;;;;;;;;;6396253;22;20171;-55
2021/01/28 11:21:36;;;;;;;4.15;2.25;;;;;;;;;;6396645;22;20198;-56
2021/01/28 11:24:03;;;;;;;3.53;1.65;;;;;;;;;;6395964;22;20192;-47
2021/01/28 11:26:45;;;;;;;3.33;1.92;;;;;;;;;;6396156;22;20177;-59
2021/01/28 11:29:25;;;;;;;3.85;1.50;;;;;;;;;;6395390;22;20194;-58
2021/01/28 11:31:53;;;;;;;2.83;1.58;;;;;;;;;;6395757;22;20181;-60
2021/01/28 11:34:20;;;;;;;3.08;1.50;;;;;;;;;;6394832;22;20274;-58
2021/01/28 11:36:49;;;;;;;3.67;1.80;;;;;;;;;;6395650;22;20182;-50
2021/01/28 11:39:17;;;;;;;3.85;2.10;;;;;;;;;;6395839;22;20300;-61
2021/01/28 11:41:43;;;;;;;5.13;1.95;;;;;;;;;;6394689;22;20176;-54
2021/01/28 11:44:10;;;;;;;4.03;1.88;;;;;;;;;;6395232;22;20170;-55
2021/01/28 11:46:37;;;;;;;4.93;2.20;;;;;;;;;;6392470;22;20265;-56
2021/01/28 11:49:05;;;;;;;3.95;2.10;;;;;;;;;;6392467;22;20224;-53
2021/01/28 11:51:32;;;;;;;8.00;2.10;;;;;;;;;;6393884;22;20190;-51
2021/01/28 11:53:59;;;;;;;5.68;2.40;;;;;;;;;;6395795;22;20184;-57
2021/01/28 11:56:35;;;;;;;3.45;2.35;;;;;;;;;;6394868;22;20230;-61
2021/01/28 11:59:03;;;;;;;4.90;2.40;;;;;;;;;;6393806;22;20177;-58
2021/01/28 12:01:31;;;;;;;3.08;2.10;;;;;;;;;;6394412;22;20162;-59
2021/01/28 12:04:12;;;;;;;3.35;1.50;;;;;;;;;;6395131;22;20176;-57
2021/01/28 12:06:40;;;;;;;3.85;1.70;;;;;;;;;;6394818;22;20258;-58
2021/01/28 12:09:09;;;;;;;4.43;1.80;;;;;;;;;;6394772;22;20216;-61
2021/01/28 12:11:40;;;;;;;2.95;1.50;;;;;;;;;;6395424;22;20166;-50
2021/01/28 12:14:09;;;;;;;7.38;2.30;;;;;;;;;;6394962;22;20243;-57
2021/01/28 12:16:37;;;;;;;5.50;2.30;;;;;;;;;;6394467;22;20268;-59
2021/01/28 12:19:16;;;;;;;2.90;1.90;;;;;;;;;;6393799;22;20172;-51
2021/01/28 12:21:44;;;;;;;4.18;2.47;;;;;;;;;;6395751;22;20170;-53
2021/01/28 12:24:11;;;;;;;2.67;1.70;;;;;;;;;;6394892;22;20188;-55
2021/01/28 12:26:39;;;;;;;3.83;2.25;;;;;;;;;;6394705;22;20177;-53
2021/01/28 12:29:06;;;;;;;3.90;2.03;;;;;;;;;;6393627;22;20222;-53
2021/01/28 12:31:33;;;;;;;2.70;2.00;;;;;;;;;;6394160;22;20178;-52
2021/01/28 12:34:01;;;;;;;5.95;2.38;;;;;;;;;;6394050;22;20168;-46
2021/01/28 12:36:28;;;;;;;7.20;2.80;;;;;;;;;;6394521;22;20180;-51
2021/01/28 12:38:56;;;;;;;5.35;2.50;;;;;;;;;;6393072;22;20202;-56
2021/01/28 12:41:31;;;;;;;5.28;2.22;;;;;;;;;;6393433;22;20166;-59
2021/01/28 12:43:58;;;;;;;2.60;1.65;;;;;;;;;;6393975;22;20241;-51
2021/01/28 12:46:26;;;;;;;2.40;1.65;;;;;;;;;;6393500;22;20170;-54
2021/01/28 12:49:04;;;;;;;3.83;2.53;;;;;;;;;;6394729;22;20230;-58
2021/01/28 12:51:32;;;;;;;3.92;2.10;;;;;;;;;;6396310;22;20207;-51
2021/01/28 12:53:59;;;;;;;4.45;2.50;;;;;;;;;;6395999;22;20186;-55
2021/01/28 12:56:25;;;;;;;5.85;2.50;;;;;;;;;;6396562;22;20178;-55
2021/01/28 12:58:52;;;;;;;4.20;2.33;;;;;;;;;;6395418;22;20160;-54
2021/01/28 13:01:51;;;;;;;4.53;2.33;;;;;;;;;;6368655;22;20198;-59
2021/01/28 13:04:18;;;;;;;7.65;2.63;;;;;;;;;;6395670;22;20191;-54
2021/01/28 13:06:49;;;;;;;4.45;2.38;;;;;;;;;;6395990;22;20193;-56
2021/01/28 13:12:20;;;;;;;4.32;3.15;;;;;;;;;;6395817;22;20174;-55
2021/01/28 13:14:47;;;;;;;5.13;3.38;;;;;;;;;;6396860;22;20174;-60
2021/01/28 13:17:39;;;;;;;5.53;2.53;;;;;;;;;;6395681;22;20176;-56
2021/01/28 13:20:07;;;;;;;4.88;2.90;;;;;;;;;;6395985;22;20210;-51
2021/01/28 13:22:35;;;;;;;4.95;3.55;;;;;;;;;;6395223;22;20229;-53
2021/01/28 13:25:04;;;;;;;5.25;2.80;;;;;;;;;;6395975;22;20187;-56
2021/01/28 13:27:33;;;;;;;3.28;2.22;;;;;;;;;;6395795;22;20235;-54
2021/01/28 13:30:01;;;;;;;7.30;2.15;;;;;;;;;;6395697;22;20193;-58
2021/01/28 13:32:30;;;;;;;4.70;2.97;;;;;;;;;;6395314;22;20178;-53
2021/01/28 13:34:57;;;;;;;5.60;2.58;;;;;;;;;;6396052;22;20161;-55
2021/01/28 13:37:34;;;;;;;4.93;3.08;;;;;;;;;;6396262;22;20675;-55
2021/01/28 13:40:03;;;;;;;4.30;2.47;;;;;;;;;;6396134;22;20262;-54
2021/01/28 13:42:32;;;;;;;3.97;2.88;;;;;;;;;;6397287;22;20174;-55
2021/01/28 13:45:04;;;;;;;4.03;2.83;;;;;;;;;;6396386;22;20169;-58
2021/01/28 13:47:31;;;;;;;3.83;2.33;;;;;;;;;;6394741;22;20205;-57
2021/01/28 13:49:58;;;;;;;4.90;3.15;;;;;;;;;;6395490;22;20244;-57
2021/01/28 13:52:39;;;;;;;4.35;2.05;;;;;;;;;;6396429;22;20248;-56
2021/01/28 13:55:07;;;;;;;3.78;2.22;;;;;;;;;;6395463;22;20182;-55
2021/01/28 13:57:34;;;;;;;6.15;2.50;;;;;;;;;;6396751;22;20159;-57
2021/01/28 14:00:09;;;;;;;3.90;2.50;;;;;;;;;;6395164;22;20182;-52
2021/01/28 14:02:36;;;;;;;4.65;3.05;;;;;;;;;;6396006;22;20206;-54
2021/01/28 14:05:04;;;;;;;3.78;2.50;;;;;;;;;;6395299;22;20178;-58
2021/01/28 14:07:31;;;;;;;2.80;1.75;;;;;;;;;;6396441;22;20164;-60
2021/01/28 14:10:00;;;;;;;3.97;2.53;;;;;;;;;;6395605;22;20164;-50
2021/01/28 14:12:43;;;;;;;4.95;2.75;;;;;;;;;;6394858;22;20227;-61
2021/01/28 14:15:12;;;;;;;2.60;2.08;;;;;;;;;;6395716;22;20170;-59
2021/01/28 14:17:39;;;;;;;3.97;2.20;;;;;;;;;;6395596;22;20182;-53
2021/01/28 14:20:16;;;;;;;3.08;2.17;;;;;;;;;;6395250;22;20206;-54
2021/01/28 14:22:43;;;;;;;3.38;2.53;;;;;;;;;;6395844;22;20182;-58
2021/01/28 14:25:12;;;;;;;3.88;3.00;;;;;;;;;;6395270;22;20186;-54
2021/01/28 14:28:10;;;;;;;3.95;2.80;;;;;;;;;;6395271;22;20199;-57
2021/01/28 14:30:37;;;;;;;4.03;3.08;;;;;;;;;;6394925;22;20182;-59
2021/01/28 14:33:04;;;;;;;3.22;2.50;;;;;;;;;;6396149;22;20164;-56
2021/01/28 14:35:37;;;;;;;6.15;3.30;;;;;;;;;;6369158;22;20166;-58
2021/01/28 14:38:04;;;;;;;5.65;4.10;;;;;;;;;;6396743;22;20166;-56
2021/01/28 14:40:31;;;;;;;3.95;2.80;;;;;;;;;;6396273;22;20172;-53
2021/01/28 14:43:11;;;;;;;3.80;2.45;;;;;;;;;;6394880;22;20158;-55
2021/01/28 14:45:39;;;;;;;4.20;2.60;;;;;;;;;;6395602;22;20170;-56
2021/01/28 14:48:07;;;;;;;4.15;2.40;;;;;;;;;;6395416;22;20207;-49
2021/01/28 14:50:58;;;;;;;4.25;3.55;;;;;;;;;;6395737;22;20171;-56
2021/01/28 14:53:29;;;;;;;14.32;9.13;;;;;;;;;;6395493;22;20228;-53
2021/01/28 14:56:02;;;;;;;4.50;3.28;;;;;;;;;;6394612;22;20202;-49
2021/01/28 14:58:47;;;;;;;3.20;2.00;;;;;;;;;;6395172;22;20178;-56
2021/01/28 15:01:14;;;;;;;3.90;2.92;;;;;;;;;;6395030;22;20208;-56
2021/01/28 15:03:42;;;;;;;6.28;3.38;;;;;;;;;;6395246;22;20203;-49
2021/01/28 15:06:16;;;;;;;5.22;2.97;;;;;;;;;;6395961;22;20218;-52
2021/01/28 15:08:43;;;;;;;5.50;4.00;;;;;;;;;;6394197;22;20221;-50
2021/01/28 15:11:25;;;;;;;8.60;5.32;;;;;;;;;;6395573;22;20166;-59
2021/01/28 15:13:54;;;;;;;6.80;4.70;;;;;;;;;;6394620;22;20180;-52
2021/01/28 15:16:22;;;;;;;5.15;3.97;;;;;;;;;;6368569;22;20179;-56
2021/01/28 15:18:55;;;;;;;5.88;4.25;;;;;;;;;;6397772;22;20171;-56
2021/01/28 15:21:22;;;;;;;6.35;4.30;;;;;;;;;;6396562;22;20218;-58
2021/01/28 15:23:49;;;;;;;5.68;4.68;;;;;;;;;;6396690;22;20161;-50
2021/01/28 15:26:17;;;;;;;5.00;3.45;;;;;;;;;;6397138;22;20152;-55
2021/01/28 15:28:44;;;;;;;5.13;3.67;;;;;;;;;;6395651;22;20222;-51
2021/01/28 15:31:28;;;;;;;6.25;4.85;;;;;;;;;;6397306;22;20166;-53